createdAt,value
2022-09-30T00:00:09.901Z,23.27
2022-09-30T00:05:33.191Z,24.73
2022-09-30T00:10:36.444Z,23.20
2022-09-30T00:15:41.310Z,26.95
2022-09-30T00:20:44.567Z,24.23
2022-09-30T00:25:48.195Z,27.48
2022-09-30T00:30:52.869Z,26.50
2022-09-30T00:35:56.240Z,30.45
2022-09-30T00:40:59.843Z,28.60
2022-09-30T00:46:04.750Z,27.63
2022-09-30T00:51:09.085Z,27.17
2022-09-30T00:56:14.910Z,28.02
2022-09-30T01:01:20.253Z,23.67
2022-09-30T01:06:25.079Z,26.35
2022-09-30T01:11:29.052Z,24.30
2022-09-30T01:16:49.113Z,25.40
2022-09-30T01:22:19.072Z,26.00
2022-09-30T01:27:43.364Z,23.88
2022-09-30T01:33:19.752Z,26.23
2022-09-30T01:38:29.491Z,27.60
2022-09-30T01:43:45.473Z,25.88
2022-09-30T01:48:59.643Z,25.95
2022-09-30T01:54:07.386Z,25.55
2022-09-30T01:59:15.881Z,23.95
2022-09-30T02:04:26.366Z,23.40
2022-09-30T02:09:33.735Z,25.85
2022-09-30T02:14:42.456Z,24.98
2022-09-30T02:19:51.849Z,25.05
2022-09-30T02:25:00.308Z,24.88
2022-09-30T02:30:04.959Z,26.10
2022-09-30T02:35:12.843Z,23.58
2022-09-30T02:40:21.355Z,24.63
2022-09-30T02:45:26.109Z,26.17
2022-09-30T02:50:35.190Z,25.98
2022-09-30T02:55:49.959Z,29.92
2022-09-30T03:00:55.239Z,21.27
2022-09-30T03:06:00.274Z,25.23
2022-09-30T03:11:04.836Z,22.55
2022-09-30T03:16:21.874Z,19.30
2022-09-30T03:21:39.312Z,19.08
2022-09-30T03:26:53.510Z,22.40
2022-09-30T03:32:09.636Z,26.35
2022-09-30T03:37:23.139Z,23.83
2022-09-30T03:42:30.727Z,23.48
2022-09-30T03:47:39.190Z,23.23
2022-09-30T03:52:44.346Z,20.45
2022-09-30T03:57:49.047Z,24.00
2022-09-30T04:02:57.075Z,20.42
2022-09-30T04:08:02.752Z,26.58
2022-09-30T04:13:06.041Z,23.00
2022-09-30T04:18:09.454Z,22.95
2022-09-30T04:23:14.088Z,24.77
2022-09-30T04:28:17.669Z,21.95
2022-09-30T04:33:21.044Z,24.75
2022-09-30T04:38:26.377Z,22.38
2022-09-30T04:43:30.029Z,22.80
2022-09-30T04:48:33.338Z,20.45
2022-09-30T04:53:37.979Z,19.63
2022-09-30T04:58:41.483Z,23.83
2022-09-30T05:03:45.971Z,24.48
2022-09-30T05:08:50.671Z,23.73
2022-09-30T05:13:54.000Z,21.90
2022-09-30T05:18:57.313Z,23.38
2022-09-30T05:24:02.670Z,24.40
2022-09-30T05:29:06.241Z,23.05
2022-09-30T05:34:09.981Z,25.45
2022-09-30T05:39:14.940Z,21.98
2022-09-30T05:44:19.290Z,25.08
2022-09-30T05:49:22.739Z,22.00
2022-09-30T05:54:27.801Z,23.48
2022-09-30T05:59:31.107Z,23.88
2022-09-30T06:04:34.779Z,23.35
2022-09-30T06:09:39.676Z,24.80
2022-09-30T06:14:42.996Z,23.83
2022-09-30T06:19:46.311Z,24.90
2022-09-30T06:24:55.004Z,23.02
2022-09-30T06:29:58.667Z,22.95
2022-09-30T06:35:03.781Z,22.98
2022-09-30T06:40:09.921Z,21.80
2022-09-30T06:45:25.670Z,23.60
2022-09-30T06:50:34.491Z,24.90
2022-09-30T06:55:40.704Z,24.13
2022-09-30T07:00:44.047Z,28.20
2022-09-30T07:05:47.497Z,32.40
2022-09-30T07:10:52.828Z,30.52
2022-09-30T07:15:57.113Z,27.52
2022-09-30T07:21:00.444Z,35.88
2022-09-30T07:26:07.876Z,29.23
2022-09-30T07:31:31.986Z,30.63
2022-09-30T07:36:38.089Z,25.17
2022-09-30T07:41:45.195Z,25.50
2022-09-30T07:46:48.678Z,28.60
2022-09-30T07:51:53.957Z,26.23
2022-09-30T07:57:15.160Z,27.17
2022-09-30T08:02:20.177Z,27.17
2022-09-30T08:07:24.066Z,26.92
2022-09-30T08:12:28.792Z,28.95
2022-09-30T08:17:32.020Z,24.35
2022-09-30T08:22:35.414Z,26.30
2022-09-30T08:27:40.310Z,28.15
2022-09-30T08:32:43.818Z,27.13
2022-09-30T08:37:47.155Z,26.75
2022-09-30T08:43:14.787Z,23.27
2022-09-30T08:48:29.893Z,28.48
2022-09-30T08:53:37.779Z,26.17
2022-09-30T08:58:46.388Z,29.23
2022-09-30T09:03:49.833Z,27.42
2022-09-30T09:09:26.075Z,25.63
2022-09-30T09:14:46.908Z,31.08
2022-09-30T09:19:57.354Z,32.00
2022-09-30T09:25:03.586Z,27.23
2022-09-30T09:30:11.794Z,25.70
2022-09-30T09:35:17.532Z,28.65
2022-09-30T09:40:34.318Z,29.27
2022-09-30T09:45:49.281Z,27.75
2022-09-30T09:51:02.206Z,27.83
2022-09-30T09:56:18.165Z,25.52
2022-09-30T10:01:33.157Z,27.67
2022-09-30T10:06:48.252Z,21.45
2022-09-30T10:11:51.819Z,23.67
2022-09-30T10:17:00.130Z,20.42
2022-09-30T10:22:19.984Z,19.58
2022-09-30T10:27:29.306Z,18.38
2022-09-30T10:32:34.426Z,26.00
2022-09-30T10:37:38.620Z,24.30
2022-09-30T10:42:47.174Z,15.80
2022-09-30T10:47:55.227Z,15.13
2022-09-30T10:53:00.420Z,16.10
2022-09-30T10:58:24.615Z,15.18
2022-09-30T11:03:38.802Z,13.77
2022-09-30T11:08:47.726Z,9.98
2022-09-30T11:13:57.470Z,9.40
2022-09-30T11:19:09.602Z,9.25
2022-09-30T11:24:22.709Z,13.10
2022-09-30T11:29:44.441Z,9.32
2022-09-30T11:35:02.535Z,9.82
2022-09-30T11:40:30.572Z,8.23
2022-09-30T11:45:42.416Z,8.82
2022-09-30T11:51:00.878Z,9.45
2022-09-30T11:56:15.622Z,9.23
2022-09-30T12:01:26.492Z,7.13
2022-09-30T12:06:37.334Z,8.82
2022-09-30T12:11:47.825Z,7.05
2022-09-30T12:16:51.816Z,7.13
2022-09-30T12:22:02.761Z,9.50
2022-09-30T12:27:15.078Z,8.48
2022-09-30T12:32:47.849Z,9.47
2022-09-30T12:38:10.277Z,6.78
2022-09-30T12:43:31.274Z,7.53
2022-09-30T12:48:39.496Z,9.43
2022-09-30T12:53:44.599Z,7.50
2022-09-30T12:58:51.251Z,7.13
2022-09-30T13:04:16.031Z,9.80
2022-09-30T13:09:23.310Z,6.90
2022-09-30T13:14:34.955Z,9.13
2022-09-30T13:19:41.503Z,8.50
2022-09-30T13:25:12.508Z,8.93
2022-09-30T13:30:34.630Z,9.20
2022-09-30T13:35:50.124Z,7.43
2022-09-30T13:41:02.297Z,6.57
2022-09-30T13:46:12.197Z,5.72
2022-09-30T13:51:19.671Z,8.23
2022-09-30T13:56:27.808Z,6.15
2022-09-30T14:01:54.625Z,7.82
2022-09-30T14:07:10.528Z,7.72
2022-09-30T14:12:30.940Z,6.28
2022-09-30T14:17:47.877Z,5.18
2022-09-30T14:22:51.453Z,5.82
2022-09-30T14:28:09.994Z,7.28
2022-09-30T14:33:23.701Z,6.72
2022-09-30T14:38:30.236Z,6.53
2022-09-30T14:43:42.538Z,12.32
2022-09-30T14:53:56.069Z,5.85
2022-09-30T14:59:01.468Z,7.63
2022-09-30T15:04:09.113Z,5.03
2022-09-30T15:09:18.851Z,5.93
2022-09-30T15:14:24.871Z,6.82
2022-09-30T15:19:30.109Z,8.93
2022-09-30T15:24:34.505Z,5.93
2022-09-30T15:29:39.438Z,5.32
2022-09-30T15:34:46.116Z,6.90
2022-09-30T15:40:08.111Z,7.47
2022-09-30T15:45:35.735Z,5.43
2022-09-30T15:50:42.131Z,7.35
2022-09-30T15:55:48.289Z,6.97
2022-09-30T16:00:54.259Z,5.68
2022-09-30T16:06:07.964Z,11.27
2022-09-30T16:11:19.117Z,11.23
2022-09-30T16:16:27.442Z,6.65
2022-09-30T16:21:50.851Z,6.90
2022-09-30T16:26:56.218Z,13.82
2022-09-30T16:32:04.690Z,16.85
2022-09-30T16:37:13.818Z,11.48
2022-09-30T16:42:18.653Z,15.45
2022-09-30T16:47:23.635Z,15.32
2022-09-30T16:52:27.151Z,9.80
2022-09-30T16:57:30.728Z,10.43
2022-09-30T17:02:35.462Z,13.68
2022-09-30T17:07:38.969Z,20.98
2022-09-30T17:12:42.525Z,14.00
2022-09-30T17:17:47.985Z,15.15
2022-09-30T17:22:51.759Z,19.17
2022-09-30T17:27:59.869Z,21.80
2022-09-30T17:33:04.827Z,21.60
2022-09-30T17:38:08.798Z,22.95
2022-09-30T17:43:13.161Z,21.88
2022-09-30T17:48:19.542Z,22.83
2022-09-30T17:53:24.161Z,29.73
2022-09-30T17:58:28.574Z,33.65
2022-09-30T18:03:33.467Z,35.80
2022-09-30T18:08:36.872Z,31.00
2022-09-30T18:13:40.561Z,30.77
2022-09-30T18:18:45.292Z,29.98
2022-09-30T18:23:51.278Z,29.75
2022-09-30T18:28:55.886Z,20.98
2022-09-30T18:34:10.777Z,22.50
2022-09-30T18:39:16.564Z,26.27
2022-09-30T18:44:20.577Z,31.70
2022-09-30T18:49:26.866Z,24.80
2022-09-30T18:54:31.541Z,32.97
2022-09-30T18:59:35.093Z,25.65
2022-09-30T19:04:43.264Z,24.10
2022-09-30T19:09:50.515Z,23.80
2022-09-30T19:14:55.561Z,24.33
2022-09-30T19:20:01.553Z,24.38
2022-09-30T19:25:11.966Z,24.02
2022-09-30T19:30:17.320Z,24.85
2022-09-30T19:35:35.067Z,26.27
2022-09-30T19:40:44.142Z,24.00
2022-09-30T19:45:56.012Z,36.83
2022-09-30T19:51:03.445Z,30.67
2022-09-30T19:56:12.635Z,29.02
2022-09-30T20:01:18.327Z,24.85
2022-09-30T20:06:23.662Z,23.92
2022-09-30T20:11:29.928Z,27.88
2022-09-30T20:16:34.050Z,24.98
2022-09-30T20:21:41.782Z,23.67
2022-09-30T20:26:47.119Z,24.30
2022-09-30T20:31:51.712Z,26.23
2022-09-30T20:36:56.812Z,26.48
2022-09-30T20:42:00.199Z,26.02
2022-09-30T20:47:03.830Z,24.73
2022-09-30T20:52:08.783Z,31.88
2022-09-30T20:57:12.218Z,28.90
2022-09-30T21:02:16.101Z,22.92
2022-09-30T21:07:21.173Z,30.92
2022-09-30T21:12:24.502Z,23.75
2022-09-30T21:17:28.069Z,26.05
2022-09-30T21:22:32.797Z,24.33
2022-09-30T21:27:36.212Z,26.33
2022-09-30T21:32:43.214Z,26.38
2022-09-30T21:37:49.748Z,24.15
2022-09-30T21:42:53.119Z,27.52
2022-09-30T21:48:02.176Z,25.20
2022-09-30T21:53:06.909Z,29.27
2022-09-30T21:58:10.319Z,25.38
2022-09-30T22:03:13.979Z,26.63
2022-09-30T22:08:18.812Z,30.08
2022-09-30T22:13:22.489Z,28.52
2022-09-30T22:18:25.960Z,29.80
2022-09-30T22:23:30.930Z,36.58
2022-09-30T22:28:34.331Z,34.13
2022-09-30T22:33:54.963Z,33.63
2022-09-30T22:38:59.726Z,30.48
2022-09-30T22:44:03.345Z,31.95
2022-09-30T22:49:07.657Z,27.23
2022-09-30T22:54:12.589Z,34.08
2022-09-30T22:59:16.618Z,29.42
2022-09-30T23:04:20.513Z,27.63
2022-09-30T23:09:25.840Z,24.55
2022-09-30T23:14:29.479Z,23.38
2022-09-30T23:19:32.835Z,26.35
2022-09-30T23:24:37.774Z,27.67
2022-09-30T23:29:41.139Z,24.88
2022-09-30T23:34:44.513Z,27.85
2022-09-30T23:39:49.417Z,25.48
2022-09-30T23:44:52.794Z,24.83
2022-09-30T23:49:56.500Z,28.27
2022-09-30T23:55:01.397Z,25.30
